Time;durP1;ratioP1;P1;durP2;ratioP2;P2;SDS_P1;SDS_P2;PMS_P1;PMS_P2;Temp;Humidity;BMP_temperature;BMP_pressure;BME280_temperature;BME280_humidity;BME280_pressure;Samples;Min_cycle;Max_cycle;Signal;HPM_P1;HPM_P2
2021/12/12 00:00:29;;;;;;;8.38;3.83;;;;;;;5.48;66.90;98505.09;5066144;28;20049;-94
2021/12/12 00:03:02;;;;;;;7.07;3.92;;;;;;;5.45;66.93;98509.53;5064835;28;20479;-95
2021/12/12 00:05:43;;;;;;;6.85;3.80;;;;;;;5.52;66.42;98513.84;5073434;28;20045;-96
2021/12/12 00:08:54;;;;;;;8.50;3.95;;;;;;;5.48;67.25;98513.00;5102330;28;20044;-95
2021/12/12 00:56:19;;;;;;;;;;;;;;;;;;;;;
2021/12/12 00:59:47;;;;;;;8.15;3.35;;;;;;;5.15;69.33;98573.06;5125609;22;20052;-96
2021/12/12 01:02:30;;;;;;;6.40;3.70;;;;;;;5.29;69.55;98622.16;5081689;28;20056;-95
2021/12/12 01:08:08;;;;;;;8.20;3.78;;;;;;;5.23;68.60;98598.53;5074037;28;20044;-96
2021/12/12 01:10:50;;;;;;;8.52;4.00;;;;;;;5.19;69.14;98599.44;5101656;28;20051;-94
2021/12/12 01:13:18;;;;;;;11.73;4.00;;;;;;;5.37;68.85;98636.16;5103014;28;20044;-93
2021/12/12 01:15:48;;;;;;;10.63;4.20;;;;;;;5.29;68.82;98630.06;5107014;28;20052;-94
2021/12/12 01:18:21;;;;;;;9.40;5.05;;;;;;;5.26;68.60;98620.44;5085734;28;20067;-95
2021/12/12 01:20:53;;;;;;;9.00;3.67;;;;;;;5.21;69.23;98618.75;5085239;28;20025;-95
2021/12/12 01:23:23;;;;;;;11.43;4.15;;;;;;;5.21;69.00;98630.16;5079954;28;20051;-95
2021/12/12 01:25:59;;;;;;;9.98;4.03;;;;;;;5.17;69.09;98628.44;5073623;28;20074;-96
2021/12/12 01:28:54;;;;;;;8.25;4.40;;;;;;;5.18;68.95;98630.16;5062893;28;20041;-95
2021/12/12 01:31:30;;;;;;;10.65;4.35;;;;;;;5.17;69.01;98623.16;5063121;28;20052;-96
2021/12/12 01:34:10;;;;;;;12.45;4.25;;;;;;;5.12;69.49;98633.75;5072266;28;20045;-95
2021/12/12 01:43:40;;;;;;;10.52;4.50;;;;;;;5.07;69.84;98667.13;5123712;28;20051;-95
2021/12/12 01:46:14;;;;;;;9.38;4.97;;;;;;;5.11;70.32;98683.81;5126707;28;20069;-95
2021/12/12 01:48:45;;;;;;;12.07;5.53;;;;;;;4.87;70.20;98650.59;5126274;28;20040;-95
2021/12/12 01:51:27;;;;;;;8.93;4.65;;;;;;;5.03;70.14;98677.72;5122503;28;20048;-96
2021/12/12 01:53:59;;;;;;;12.82;5.03;;;;;;;4.66;71.81;98641.03;5129410;28;20071;-95
2021/12/12 01:56:31;;;;;;;10.25;4.97;;;;;;;4.70;71.80;98663.84;5124416;28;20044;-93
2021/12/12 01:59:01;;;;;;;10.48;5.65;;;;;;;4.79;70.63;98652.41;5121005;28;20397;-94
2021/12/12 02:01:38;;;;;;;9.02;4.90;;;;;;;4.87;70.23;98664.63;5139608;28;20047;-94
2021/12/12 02:04:09;;;;;;;10.98;5.00;;;;;;;4.81;70.66;98661.16;5145422;28;20044;-95
2021/12/12 02:06:37;;;;;;;14.18;5.45;;;;;;;4.68;70.86;98642.81;5146105;28;20112;-95
2021/12/12 02:09:05;;;;;;;11.80;5.93;;;;;;;4.86;70.40;98676.06;5140069;28;20036;-92
2021/12/12 02:11:34;;;;;;;13.38;5.63;;;;;;;4.84;69.29;98646.22;5138332;28;20492;-93
2021/12/12 02:14:10;;;;;;;11.25;5.22;;;;;;;4.90;69.06;98655.84;5138863;28;20100;-95
2021/12/12 02:16:49;;;;;;;10.48;5.30;;;;;;;4.77;70.09;98648.88;5143432;28;20429;-94
2021/12/12 02:19:17;;;;;;;10.57;5.15;;;;;;;4.67;70.46;98654.22;5143195;28;20055;-94
2021/12/12 02:38:35;;;;;;;8.90;4.45;;;;;;;3.87;74.95;98683.44;6005033;22;6834025;-93
2021/12/12 02:41:06;;;;;;;14.68;7.15;;;;;;;4.45;71.33;98699.97;6327480;22;20015;-91
2021/12/12 02:43:44;;;;;;;12.25;5.40;;;;;;;4.22;72.76;98666.69;6330244;22;20048;-95
2021/12/12 02:46:14;;;;;;;;;;;;;;;4.44;71.84;98716.63;6332149;22;20011;-94
2021/12/12 02:48:43;;;;;;;10.20;4.82;;;;;;;4.19;72.23;98686.91;6332492;22;19921;-94
2021/12/12 02:51:12;;;;;;;13.35;5.45;;;;;;;4.36;71.74;98682.47;6329424;22;20026;-94
2021/12/12 02:53:55;;;;;;;10.73;5.68;;;;;;;4.68;70.48;98719.19;6331181;22;20015;-95
2021/12/12 02:56:24;;;;;;;14.80;5.30;;;;;;;4.50;70.76;98679.75;6328720;22;20015;-95
2021/12/12 02:58:57;;;;;;;11.45;5.75;;;;;;;4.62;69.97;98695.53;6330083;22;20019;-94
2021/12/12 03:01:52;;;;;;;11.88;5.47;;;;;;;4.60;70.68;98678.84;6328420;22;20015;-94
2021/12/12 03:04:27;;;;;;;9.40;4.47;;;;;;;4.53;70.56;98680.63;6300992;22;20015;-95
2021/12/12 03:07:04;;;;;;;10.52;5.80;;;;;;;4.49;71.07;98685.94;6305613;22;20022;-95
2021/12/12 03:09:37;;;;;;;15.43;7.00;;;;;;;4.64;70.31;98696.38;6297641;22;20019;-94
2021/12/12 03:12:08;;;;;;;12.90;5.85;;;;;;;4.85;69.97;98705.94;6297623;22;20020;-96
2021/12/12 03:14:51;;;;;;;14.52;6.05;;;;;;;4.96;69.80;98723.44;6301022;22;20077;-95
2021/12/12 03:17:20;;;;;;;12.88;5.78;;;;;;;4.71;70.25;98694.59;6307446;22;20018;-95
2021/12/12 03:20:04;;;;;;;14.95;5.93;;;;;;;4.73;69.81;98691.06;6301297;22;20022;-95
2021/12/12 03:22:31;;;;;;;14.63;5.68;;;;;;;4.68;70.54;98706.03;6303926;22;20019;-95
2021/12/12 03:25:00;;;;;;;13.18;6.95;;;;;;;4.74;70.03;98719.16;6300626;22;20015;-95
2021/12/12 03:27:33;;;;;;;15.35;6.07;;;;;;;4.78;69.66;98711.25;6298799;22;20011;-95
2021/12/12 03:30:00;;;;;;;12.00;5.95;;;;;;;4.94;69.82;98749.78;6300769;22;20015;-95
2021/12/12 03:32:27;;;;;;;12.45;5.70;;;;;;;5.06;69.45;98752.38;6295553;22;20071;-94
2021/12/12 03:34:58;;;;;;;11.80;5.68;;;;;;;5.03;69.03;98744.50;6297732;22;20150;-92
2021/12/12 03:37:29;;;;;;;15.02;5.95;;;;;;;4.84;69.62;98724.41;6299148;22;20090;-96
2021/12/12 03:40:09;;;;;;;12.50;5.93;;;;;;;5.13;68.99;98762.00;6292153;22;20023;-96
2021/12/12 03:42:36;;;;;;;10.48;5.55;;;;;;;4.95;69.04;98733.13;6291804;22;20042;-93
2021/12/12 03:45:05;;;;;;;10.75;6.05;;;;;;;5.12;67.92;98746.22;6284550;22;20015;-93
2021/12/12 03:47:36;;;;;;;12.00;5.43;;;;;;;4.98;68.14;98726.94;6287091;22;20065;-95
2021/12/12 03:50:12;;;;;;;10.13;5.60;;;;;;;5.11;68.63;98762.91;6292889;22;20446;-94
2021/12/12 03:52:39;;;;;;;9.27;5.05;;;;;;;4.93;68.46;98737.53;6292753;22;20035;-94
2021/12/12 03:55:25;;;;;;;10.05;4.85;;;;;;;4.97;68.63;98752.44;6293329;22;20019;-96
2021/12/12 03:57:51;;;;;;;11.05;5.18;;;;;;;5.07;68.67;98780.47;6295328;22;20025;-92
2021/12/12 04:00:25;;;;;;;10.68;5.65;;;;;;;4.92;69.18;98765.63;6291697;22;20019;-95
2021/12/12 04:03:08;;;;;;;10.68;4.78;;;;;;;4.80;69.17;98756.91;6295636;22;20015;-96
2021/12/12 04:05:58;;;;;;;8.88;4.65;;;;;;;4.78;69.12;98770.06;6291572;22;20022;-94
2021/12/12 04:08:40;;;;;;;8.85;4.72;;;;;;;4.74;69.64;98779.72;6297069;22;20106;-95
2021/12/12 04:11:18;;;;;;;12.25;5.03;;;;;;;4.88;68.69;98805.16;6295422;22;20073;-96
2021/12/12 04:13:47;;;;;;;7.53;4.57;;;;;;;4.79;68.90;98787.63;6293333;22;20019;-95
2021/12/12 04:16:16;;;;;;;9.02;5.30;;;;;;;5.06;68.19;98820.91;6287646;22;20015;-93
2021/12/12 04:18:43;;;;;;;11.07;5.10;;;;;;;5.07;67.78;98801.56;6285523;22;20019;-94
2021/12/12 04:21:09;;;;;;;9.88;5.18;;;;;;;5.07;67.28;98791.00;6289833;22;20023;-94
2021/12/12 04:24:10;;;;;;;11.48;5.05;;;;;;;5.04;67.55;98785.78;6295950;22;20015;-95
2021/12/12 04:26:40;;;;;;;10.23;5.40;;;;;;;5.07;67.50;98801.56;6287778;22;20015;-92
2021/12/12 04:29:36;;;;;;;10.70;4.68;;;;;;;5.22;67.42;98836.66;6292172;22;20050;-96
2021/12/12 04:32:35;;;;;;;10.85;4.63;;;;;;;4.88;68.56;98806.06;6178423;23;20139;-95
2021/12/12 04:42:22;;;;;;;9.48;4.03;;;;;;;4.95;68.22;98827.97;5103079;28;20036;-94
2021/12/12 04:45:15;;;;;;;9.57;4.65;;;;;;;4.82;68.51;98829.78;5104342;28;20048;-96
2021/12/12 04:51:11;;;;;;;9.32;4.60;;;;;;;4.77;68.11;98822.75;5121832;27;20418;-96
2021/12/12 04:53:51;;;;;;;14.77;5.05;;;;;;;4.71;68.51;98845.63;5125035;28;20044;-96
2021/12/12 04:56:26;;;;;;;8.75;4.22;;;;;;;4.69;68.62;98844.75;5122333;28;20070;-95
2021/12/12 04:59:10;;;;;;;12.27;4.75;;;;;;;4.81;69.44;98872.81;5128073;28;20063;-96
2021/12/12 05:02:12;;;;;;;10.55;4.28;;;;;;;4.66;68.90;98851.75;5126728;28;20070;-95
2021/12/12 05:04:53;;;;;;;14.35;5.53;;;;;;;4.52;69.33;98854.44;5130289;28;20062;-96
2021/12/12 05:07:33;;;;;;;9.40;4.75;;;;;;;4.32;70.08;98862.34;5130799;28;20097;-96
2021/12/12 05:10:09;;;;;;;8.63;4.38;;;;;;;4.41;69.96;98869.38;5126917;28;20040;-96
2021/12/12 05:12:44;;;;;;;12.63;4.78;;;;;;;4.30;70.52;98866.75;5124780;28;20047;-96
2021/12/12 05:15:18;;;;;;;6.85;3.97;;;;;;;4.17;71.44;98872.88;5128401;28;20047;-96
2021/12/12 05:17:54;;;;;;;8.07;4.13;;;;;;;4.21;72.41;98922.91;5127142;28;20052;-96
2021/12/12 05:20:28;;;;;;;10.45;4.35;;;;;;;3.73;74.29;98889.47;5128199;28;20478;-95
2021/12/12 05:23:05;;;;;;;10.75;4.18;;;;;;;3.39;76.13;98887.63;5128321;28;20115;-96
2021/12/12 05:25:38;;;;;;;10.05;4.70;;;;;;;3.15;77.82;98896.31;5128902;28;20055;-95
2021/12/12 05:28:09;;;;;;;10.57;4.70;;;;;;;2.98;78.37;98892.72;5126766;28;20499;-96
2021/12/12 05:30:37;;;;;;;12.68;5.55;;;;;;;2.86;79.57;98902.28;5127148;28;20095;-96
2021/12/12 05:33:06;;;;;;;9.50;4.90;;;;;;;2.74;80.24;98899.56;5126666;28;20079;-95
2021/12/12 05:35:37;;;;;;;13.48;4.80;;;;;;;2.84;78.87;98903.13;5125615;28;20097;-96
2021/12/12 05:38:06;;;;;;;11.98;5.10;;;;;;;3.26;76.84;98899.84;5121519;28;20107;-95
2021/12/12 05:40:41;;;;;;;11.30;4.88;;;;;;;3.48;77.06;98932.34;5125722;28;20040;-95
2021/12/12 05:43:11;;;;;;;8.93;4.35;;;;;;;3.11;78.25;98901.53;5128834;28;20048;-96
2021/12/12 05:45:53;;;;;;;9.65;4.72;;;;;;;2.98;79.10;98911.09;5128404;28;20131;-95
2021/12/12 05:48:28;;;;;;;9.35;4.95;;;;;;;2.99;78.64;98913.75;5127559;28;20063;-96
2021/12/12 05:50:55;;;;;;;12.85;5.15;;;;;;;3.17;79.90;98962.88;5087065;28;20053;-96
2021/12/12 05:53:26;;;;;;;12.73;5.60;;;;;;;2.94;79.99;98925.97;5087272;28;20044;-96
2021/12/12 05:55:52;;;;;;;10.98;4.63;;;;;;;3.06;78.25;98926.03;5085866;28;20075;-94
2021/12/12 06:04:56;;;;;;;11.65;5.03;;;;;;;3.99;75.29;98974.63;5027819;28;20030;-96
2021/12/12 06:07:23;;;;;;;11.45;5.00;;;;;;;4.02;74.32;98966.72;5028900;28;20049;-96
2021/12/12 06:09:55;;;;;;;10.38;5.38;;;;;;;3.84;75.10;98937.75;5028532;28;20069;-95
2021/12/12 06:12:23;;;;;;;11.63;5.22;;;;;;;3.83;74.43;98944.75;5029337;28;20050;-96
2021/12/12 06:14:57;;;;;;;12.63;5.63;;;;;;;3.72;76.24;98958.75;5031401;28;20080;-96
2021/12/12 06:17:32;;;;;;;13.63;6.15;;;;;;;3.55;77.19;98964.81;5029226;28;20137;-95
2021/12/12 06:20:00;;;;;;;10.18;5.18;;;;;;;3.33;78.93;98976.97;5029840;28;20102;-95
2021/12/12 06:22:43;;;;;;;13.50;6.67;;;;;;;3.14;79.61;98977.75;5031076;28;20046;-95
2021/12/12 06:25:32;;;;;;;14.38;6.38;;;;;;;2.92;80.85;98974.09;5012612;28;20092;-96
2021/12/12 06:27:58;;;;;;;13.13;5.78;;;;;;;3.34;78.71;99004.13;5028835;28;20050;-92
2021/12/12 06:30:29;;;;;;;16.20;7.18;;;;;;;3.61;78.03;99011.28;5027188;28;20109;-95
2021/12/12 06:32:57;;;;;;;17.00;7.68;;;;;;;3.42;78.24;98990.16;5031577;28;20053;-95
2021/12/12 06:35:31;;;;;;;15.10;6.55;;;;;;;3.67;76.41;98990.28;5028090;28;20105;-95
2021/12/12 06:38:30;;;;;;;14.30;6.93;;;;;;;3.68;76.22;98985.00;5045095;28;20045;-95
2021/12/12 06:41:04;;;;;;;;;;;;;;;3.93;76.09;99026.34;5069022;28;20048;-95
2021/12/12 06:47:13;;;;;;;11.00;5.13;;;;;;;3.33;78.55;99000.63;5073192;28;20048;-95
2021/12/12 06:49:40;;;;;;;11.23;5.57;;;;;;;3.14;80.19;99007.50;5091123;28;20048;-94
2021/12/12 06:52:12;;;;;;;13.57;7.03;;;;;;;3.22;79.44;99018.97;5112277;28;20048;-95
2021/12/12 07:00:21;;;;;;;9.95;4.75;;;;;;;3.25;78.95;99026.88;5120464;22;20063;-96
2021/12/12 07:07:05;;;;;;;11.57;4.88;;;;;;;3.61;77.63;99067.41;5006038;28;20035;-96
2021/12/12 07:10:05;;;;;;;10.15;5.07;;;;;;;3.32;79.00;99042.66;5075628;28;20033;-96
2021/12/12 07:12:55;;;;;;;9.15;4.97;;;;;;;3.39;80.06;99057.63;5073449;28;20088;-96
2021/12/12 07:15:36;;;;;;;12.00;5.65;;;;;;;3.11;81.75;99057.44;5075845;28;20037;-96
2021/12/12 07:18:26;;;;;;;16.10;8.40;;;;;;;3.28;82.93;99099.63;5074719;28;20101;-96
2021/12/12 07:21:12;;;;;;;25.08;14.30;;;;;;;3.15;82.13;99067.09;5072991;28;20045;-94
2021/12/12 07:23:59;;;;;;;15.25;7.65;;;;;;;3.32;76.81;99066.31;5075735;28;20048;-96
2021/12/12 07:27:09;;;;;;;;;;;;;;;;;;;;;
2021/12/12 07:29:50;;;;;;;26.98;8.55;;;;;;;3.63;78.25;99084.06;5075254;28;20041;-96
2021/12/12 07:32:29;;;;;;;49.28;15.30;;;;;;;3.61;79.02;99083.16;5075681;28;20069;-96
2021/12/12 07:35:13;;;;;;;17.63;8.48;;;;;;;3.55;80.43;99082.25;5074887;28;20052;-96
2021/12/12 07:38:19;;;;;;;45.83;19.10;;;;;;;3.68;80.32;99091.97;5076302;28;20077;-96
2021/12/12 07:41:02;;;;;;;51.60;19.67;;;;;;;3.72;80.27;99093.75;5075336;28;20043;-96
2021/12/12 07:43:34;;;;;;;77.65;25.50;;;;;;;4.08;80.60;99148.31;5076356;28;20040;-96
2021/12/12 07:46:45;;;;;;;28.45;13.73;;;;;;;4.12;79.08;99117.66;4995945;28;20047;-96
2021/12/12 07:53:45;;;;;;;23.00;11.68;;;;;;;4.27;77.81;99101.91;5006569;28;20047;-96
2021/12/12 07:56:55;;;;;;;21.92;9.93;;;;;;;4.44;75.59;99099.31;5029932;28;20064;-96
2021/12/12 08:10:53;;;;;;;17.92;6.55;;;;;;;5.41;69.24;99117.00;4970977;29;20134;-96
2021/12/12 08:13:26;;;;;;;13.38;6.43;;;;;;;5.54;69.86;99124.00;4972063;29;20047;-96
2021/12/12 08:16:04;;;;;;;13.45;5.63;;;;;;;5.80;67.02;99123.09;4969333;29;20072;-96
2021/12/12 08:18:44;;;;;;;12.88;5.85;;;;;;;5.91;65.14;99122.19;4966788;29;20086;-94
2021/12/12 08:21:25;;;;;;;13.02;5.63;;;;;;;6.10;65.52;99128.31;4970784;29;20047;-96
2021/12/12 08:23:59;;;;;;;11.75;5.75;;;;;;;6.45;64.44;99166.06;4969762;28;20051;-96
2021/12/12 08:26:53;;;;;;;43.33;19.17;;;;;;;6.34;64.69;99127.34;4974613;29;20039;-96
2021/12/12 08:29:22;;;;;;;16.00;8.10;;;;;;;6.42;63.69;99135.25;4970680;29;20129;-96
2021/12/12 08:31:49;;;;;;;11.05;5.25;;;;;;;6.58;61.82;99130.75;4967576;29;20054;-95
2021/12/12 08:34:22;;;;;;;9.10;5.38;;;;;;;6.74;61.50;99156.22;4961605;29;20047;-96
2021/12/12 08:36:54;;;;;;;11.23;5.00;;;;;;;6.67;62.17;99133.34;4969208;29;20047;-95
2021/12/12 08:39:21;;;;;;;10.43;5.78;;;;;;;6.84;61.29;99156.16;4969011;29;20081;-95
2021/12/12 08:41:54;;;;;;;10.63;5.10;;;;;;;6.73;61.10;99135.97;4968505;29;20102;-95
2021/12/12 08:44:25;;;;;;;12.35;6.10;;;;;;;6.86;60.27;99143.81;4967598;29;20043;-96
2021/12/12 08:46:58;;;;;;;11.27;5.28;;;;;;;6.96;59.58;99142.84;4965154;29;20067;-96
2021/12/12 09:10:22;;;;;;;7.65;4.22;;;;;;;7.27;56.26;99156.75;4925944;29;20147;-96
2021/12/12 09:12:57;;;;;;;8.60;4.30;;;;;;;7.38;57.11;99164.63;4930251;29;20072;-95
2021/12/12 09:15:29;;;;;;;8.95;3.90;;;;;;;7.54;56.51;99174.16;4930968;29;20076;-95
2021/12/12 09:18:02;;;;;;;6.40;3.78;;;;;;;7.77;55.76;99173.97;4931774;29;20077;-96
2021/12/12 09:20:36;;;;;;;8.00;4.07;;;;;;;7.79;55.46;99181.91;4929806;29;20095;-96
2021/12/12 09:23:11;;;;;;;16.80;9.68;;;;;;;7.85;56.79;99176.56;4928883;29;20066;-95
2021/12/12 09:25:43;;;;;;;11.07;4.93;;;;;;;7.96;55.28;99169.38;4929514;29;20077;-96
2021/12/12 09:28:16;;;;;;;10.68;5.78;;;;;;;7.99;55.46;99169.34;4929927;29;20048;-96
2021/12/12 09:30:46;;;;;;;7.35;4.00;;;;;;;8.02;53.58;99165.78;4925663;29;20040;-95
2021/12/12 09:33:20;;;;;;;9.38;4.15;;;;;;;8.21;53.86;99185.88;4929887;29;20550;-95
2021/12/12 09:35:55;;;;;;;8.17;4.33;;;;;;;8.03;52.82;99163.13;4946447;28;20043;-96
2021/12/12 09:38:50;;;;;;;15.73;10.68;;;;;;;8.29;54.35;99206.13;4993934;28;20280;-96
2021/12/12 09:41:27;;;;;;;8.45;4.80;;;;;;;8.34;56.76;99185.75;4997630;28;20050;-96
2021/12/12 09:44:05;;;;;;;8.02;4.47;;;;;;;8.02;51.83;99164.03;4969979;28;20528;-93
2021/12/12 09:47:11;;;;;;;8.43;3.83;;;;;;;8.06;52.87;99169.28;4971142;28;20047;-96
2021/12/12 09:53:27;;;;;;;7.95;3.95;;;;;;;8.16;51.07;99181.53;5114315;27;1441870;-96
2021/12/12 09:56:00;;;;;;;8.65;3.75;;;;;;;8.41;51.34;99182.16;5142544;28;20044;-95
2021/12/12 09:58:36;;;;;;;5.72;3.47;;;;;;;8.40;50.43;99175.09;5142344;28;20044;-96
2021/12/12 10:01:06;;;;;;;6.55;3.58;;;;;;;8.26;50.96;99177.88;5139920;28;20047;-94
2021/12/12 10:04:07;;;;;;;11.93;4.50;;;;;;;8.59;51.33;99186.38;5145794;28;20078;-95
2021/12/12 10:06:44;;;;;;;7.70;3.90;;;;;;;8.55;50.69;99169.63;5142210;28;20051;-95
2021/12/12 10:09:24;;;;;;;7.10;3.75;;;;;;;8.77;49.21;99191.44;5145978;28;20039;-94
2021/12/12 10:12:02;;;;;;;10.40;4.05;;;;;;;8.55;49.36;99189.97;5140091;28;20100;-96
2021/12/12 10:14:42;;;;;;;6.10;3.33;;;;;;;8.53;48.42;99181.16;5143855;28;20075;-95
2021/12/12 10:17:11;;;;;;;6.30;3.20;;;;;;;8.47;48.17;99181.22;5143117;28;20046;-94
2021/12/12 10:26:21;;;;;;;7.32;3.45;;;;;;;8.63;46.70;99173.06;5057681;28;20038;-95
2021/12/12 10:28:55;;;;;;;5.30;2.97;;;;;;;8.79;46.31;99165.78;5062737;28;20552;-95
2021/12/12 10:31:29;;;;;;;8.10;3.28;;;;;;;8.70;45.91;99171.22;5059167;28;20096;-95
2021/12/12 10:34:27;;;;;;;5.47;3.22;;;;;;;8.79;46.28;99205.56;5056540;28;20045;-95
2021/12/12 10:37:05;;;;;;;8.48;3.63;;;;;;;8.68;47.55;99202.16;5062007;28;20499;-94
2021/12/12 10:39:42;;;;;;;6.80;3.35;;;;;;;8.44;46.96;99203.34;5062200;28;20120;-95
2021/12/12 10:42:17;;;;;;;4.30;2.78;;;;;;;8.40;46.81;99185.69;5054554;28;20079;-94
2021/12/12 10:44:47;;;;;;;6.47;2.95;;;;;;;8.43;47.21;99181.25;5059880;28;20056;-93
2021/12/12 10:47:17;;;;;;;6.45;3.75;;;;;;;8.24;46.63;99195.59;5053062;28;20415;-94
2021/12/12 10:49:57;;;;;;;7.75;3.50;;;;;;;8.32;46.11;99209.59;5054452;28;20060;-94
2021/12/12 10:52:38;;;;;;;6.65;3.45;;;;;;;8.35;46.22;99201.66;5058710;28;20226;-95
2021/12/12 10:55:28;;;;;;;7.68;3.08;;;;;;;8.39;46.74;99179.53;5060954;28;20091;-96
2021/12/12 10:58:16;;;;;;;7.90;3.55;;;;;;;8.48;46.33;99191.81;5059190;28;20157;-95
2021/12/12 11:00:45;;;;;;;6.55;3.60;;;;;;;8.63;46.96;99188.97;5137768;28;20061;-95
2021/12/12 11:03:22;;;;;;;5.47;3.20;;;;;;;8.48;46.44;99193.56;5131839;27;20105;-94
2021/12/12 11:05:55;;;;;;;6.38;3.55;;;;;;;8.56;44.85;99199.66;5126174;28;20063;-96
2021/12/12 11:08:28;;;;;;;5.32;2.90;;;;;;;8.53;45.82;99194.41;5142736;27;20049;-96
2021/12/12 11:10:55;;;;;;;5.75;3.15;;;;;;;8.63;46.43;99211.94;5148015;27;20130;-94
2021/12/12 11:13:31;;;;;;;6.95;3.72;;;;;;;8.62;45.82;99191.63;5138676;27;20067;-96
2021/12/12 11:16:06;;;;;;;6.25;3.65;;;;;;;8.67;46.49;99197.75;5128994;28;20040;-95
2021/12/12 11:18:37;;;;;;;7.32;3.50;;;;;;;8.69;45.43;99216.31;5129803;28;20112;-95
2021/12/12 11:21:08;;;;;;;9.63;3.90;;;;;;;8.53;45.14;99218.25;5123444;28;20464;-95
2021/12/12 11:23:42;;;;;;;7.45;3.63;;;;;;;8.58;44.83;99200.53;5126820;28;20517;-96
2021/12/12 11:26:15;;;;;;;7.68;3.55;;;;;;;8.61;45.83;99208.47;5143188;27;20182;-96
2021/12/12 11:28:51;;;;;;;8.90;4.72;;;;;;;8.81;45.84;99245.31;5153141;27;20047;-96
2021/12/12 11:31:31;;;;;;;5.35;3.55;;;;;;;8.45;45.14;99213.03;5150682;27;20039;-92
2021/12/12 11:34:02;;;;;;;7.32;3.72;;;;;;;8.54;46.34;99206.75;5131665;28;20070;-96
2021/12/12 11:36:40;;;;;;;6.10;3.40;;;;;;;8.65;45.85;99207.50;5127016;28;20051;-95
2021/12/12 11:39:24;;;;;;;7.03;3.85;;;;;;;8.66;46.05;99222.53;5124650;28;20091;-93
2021/12/12 11:41:57;;;;;;;7.25;3.90;;;;;;;8.68;45.58;99234.00;5122092;27;20046;-94
2021/12/12 11:44:42;;;;;;;7.35;4.15;;;;;;;8.52;46.70;99216.50;5132522;27;20399;-95
2021/12/12 11:47:26;;;;;;;;;;;;;;;8.66;46.35;99256.97;5124680;28;20040;-96
2021/12/12 11:50:06;;;;;;;7.93;4.30;;;;;;;8.43;47.05;99228.06;5127371;28;20015;-93
2021/12/12 11:52:38;;;;;;;5.97;3.67;;;;;;;8.43;46.66;99221.00;5123986;28;20043;-94
2021/12/12 11:55:12;;;;;;;9.10;5.20;;;;;;;8.57;47.42;99244.72;5136815;27;20051;-95
2021/12/12 11:57:55;;;;;;;9.77;4.60;;;;;;;8.49;46.78;99228.00;5123351;28;20103;-94
2021/12/12 12:00:29;;;;;;;7.78;4.32;;;;;;;8.62;46.60;99250.81;5138526;27;20107;-95
2021/12/12 12:03:13;;;;;;;10.23;6.13;;;;;;;8.64;48.01;99259.66;5148091;27;20035;-96
2021/12/12 12:05:51;;;;;;;19.30;9.52;;;;;;;8.48;48.50;99225.38;5147597;27;20043;-96
2021/12/12 12:08:28;;;;;;;7.78;4.22;;;;;;;8.58;47.75;99235.84;5138406;27;20127;-95
2021/12/12 12:11:11;;;;;;;10.10;4.78;;;;;;;8.58;48.13;99227.03;5124162;28;20052;-96
2021/12/12 12:13:54;;;;;;;9.55;5.00;;;;;;;8.64;47.98;99208.41;5121915;28;20046;-95
2021/12/12 12:16:34;;;;;;;7.47;4.05;;;;;;;8.85;47.84;99255.00;5121920;27;20592;-94
2021/12/12 12:19:09;;;;;;;6.28;3.60;;;;;;;8.64;46.40;99221.66;5125951;28;20048;-96
2021/12/12 12:21:44;;;;;;;9.27;4.20;;;;;;;8.62;47.58;99229.63;5123215;28;20070;-95
2021/12/12 12:24:19;;;;;;;8.15;4.30;;;;;;;8.56;47.43;99218.22;5120713;28;20047;-96
2021/12/12 12:26:56;;;;;;;7.43;4.13;;;;;;;8.63;46.45;99228.75;5128368;27;20070;-95
2021/12/12 12:30:03;;;;;;;7.82;4.65;;;;;;;8.62;46.84;99212.84;5132093;27;20048;-96
2021/12/12 12:33:11;;;;;;;6.80;4.00;;;;;;;8.70;46.36;99218.94;5103830;28;20077;-96
2021/12/12 12:36:07;;;;;;;7.95;4.22;;;;;;;8.89;46.18;99235.50;5124333;28;20046;-96
2021/12/12 12:39:06;;;;;;;6.22;3.80;;;;;;;8.68;45.92;99228.69;5123021;28;20137;-95
2021/12/12 12:42:21;;;;;;;8.70;4.82;;;;;;;8.54;47.53;99214.69;5123124;27;20044;-94
2021/12/12 12:45:23;;;;;;;7.72;4.13;;;;;;;8.76;47.70;99257.75;5057305;28;20049;-95
2021/12/12 12:48:26;;;;;;;7.30;3.80;;;;;;;8.82;47.62;99250.59;5041360;28;20159;-96
2021/12/12 12:51:22;;;;;;;7.85;3.65;;;;;;;8.68;46.97;99212.78;5060000;28;20116;-94
2021/12/12 12:54:19;;;;;;;7.60;4.35;;;;;;;8.61;47.82;99230.53;5058109;28;20118;-95
2021/12/12 12:57:22;;;;;;;9.57;5.40;;;;;;;8.73;49.42;99252.50;5057446;28;20052;-95
2021/12/12 13:03:24;;;;;;;10.20;6.22;;;;;;;8.66;48.06;99248.16;5117596;27;20385;-93
2021/12/12 13:06:01;;;;;;;15.38;7.53;;;;;;;8.47;49.17;99235.09;5120208;28;20052;-95
2021/12/12 13:09:14;;;;;;;10.68;5.13;;;;;;;8.63;48.30;99262.31;5120553;28;20374;-95
2021/12/12 13:11:51;;;;;;;10.20;4.38;;;;;;;8.51;49.95;99233.31;5120142;28;20043;-95
2021/12/12 13:14:36;;;;;;;6.60;4.32;;;;;;;8.55;48.92;99248.28;5119022;28;20062;-94
2021/12/12 13:17:12;;;;;;;10.73;6.85;;;;;;;8.48;49.75;99241.28;5118728;28;20044;-95
2021/12/12 13:19:49;;;;;;;7.68;4.68;;;;;;;8.60;49.00;99268.53;5119201;28;20039;-95
2021/12/12 13:22:25;;;;;;;12.63;6.32;;;;;;;8.59;48.99;99228.81;5120687;28;20517;-95
2021/12/12 13:25:01;;;;;;;10.00;6.13;;;;;;;8.43;49.50;99228.06;5117396;28;20517;-95
2021/12/12 13:31:00;;;;;;;9.43;5.28;;;;;;;8.29;49.75;99237.94;5130609;27;20447;-94
2021/12/12 13:33:34;;;;;;;10.65;6.47;;;;;;;8.24;50.42;99245.94;5098228;28;20079;-95
2021/12/12 13:36:10;;;;;;;12.43;6.43;;;;;;;8.21;50.73;99253.88;5099599;28;20052;-95
2021/12/12 13:38:49;;;;;;;11.40;6.45;;;;;;;8.15;50.33;99243.34;5094701;28;20123;-96
2021/12/12 13:41:22;;;;;;;7.18;4.53;;;;;;;8.24;49.75;99237.97;5097190;28;20048;-95
2021/12/12 13:43:54;;;;;;;12.45;7.32;;;;;;;8.27;50.22;99245.88;5100660;28;20070;-95
2021/12/12 13:46:36;;;;;;;21.05;11.40;;;;;;;8.22;51.08;99243.28;5103391;28;20040;-95
2021/12/12 13:49:08;;;;;;;31.40;14.52;;;;;;;8.18;51.49;99233.59;5094591;28;20040;-95
2021/12/12 13:51:45;;;;;;;11.73;7.35;;;;;;;8.27;50.35;99237.06;5097430;28;20036;-96
2021/12/12 13:54:24;;;;;;;12.25;7.53;;;;;;;8.43;50.96;99275.78;5096225;28;20497;-94
2021/12/12 13:57:03;;;;;;;11.70;6.43;;;;;;;8.27;49.71;99245.88;5097730;28;20051;-95
2021/12/12 13:59:34;;;;;;;;;;;;;;;8.44;49.23;99274.91;5097519;28;20044;-95
2021/12/12 14:02:04;;;;;;;9.60;5.18;;;;;;;8.31;49.61;99247.63;5099361;28;20353;-95
2021/12/12 14:04:42;;;;;;;10.93;6.45;;;;;;;8.20;50.83;99241.56;5094258;28;20051;-96
2021/12/12 14:07:10;;;;;;;11.23;6.07;;;;;;;8.17;51.17;99262.75;5096415;28;20044;-96
2021/12/12 14:09:37;;;;;;;8.32;4.60;;;;;;;8.18;49.40;99260.09;5099582;28;20079;-95
2021/12/12 14:12:17;;;;;;;11.88;7.72;;;;;;;8.09;50.37;99259.28;5102348;28;20049;-94
2021/12/12 14:14:50;;;;;;;15.00;8.80;;;;;;;8.02;51.56;99264.69;5105660;28;20047;-95
2021/12/12 14:17:24;;;;;;;13.80;8.25;;;;;;;7.93;50.42;99264.72;5101427;28;20052;-96
2021/12/12 14:19:58;;;;;;;12.82;8.30;;;;;;;7.89;51.71;99270.94;5103505;28;20048;-95
2021/12/12 14:22:38;;;;;;;14.57;7.55;;;;;;;7.81;52.07;99267.50;5106645;28;20040;-95
2021/12/12 14:25:08;;;;;;;12.40;7.35;;;;;;;7.75;51.30;99270.19;5103939;28;20100;-96
2021/12/12 14:27:40;;;;;;;17.67;10.80;;;;;;;7.89;50.78;99289.47;5105536;28;20045;-96
2021/12/12 14:30:13;;;;;;;12.95;6.93;;;;;;;7.83;50.60;99278.97;5104801;28;20045;-95
2021/12/12 14:32:50;;;;;;;13.70;7.10;;;;;;;7.90;50.93;99311.56;5108317;28;20044;-96
2021/12/12 14:35:21;;;;;;;15.55;7.55;;;;;;;7.54;52.17;99280.03;5104152;28;20036;-96
2021/12/12 14:37:52;;;;;;;41.90;19.00;;;;;;;7.66;51.56;99305.56;5100868;28;20046;-95
2021/12/12 14:40:22;;;;;;;12.85;7.18;;;;;;;7.53;51.50;99291.50;5100199;28;20093;-95
2021/12/12 14:42:55;;;;;;;11.37;6.20;;;;;;;7.52;51.45;99300.31;5090068;28;20061;-96
2021/12/12 14:45:28;;;;;;;16.05;8.68;;;;;;;7.47;51.88;99311.84;5082177;28;20055;-92
2021/12/12 14:47:59;;;;;;;24.65;12.10;;;;;;;7.42;52.93;99317.16;5063056;28;20051;-95
2021/12/12 14:50:30;;;;;;;20.95;11.20;;;;;;;7.24;54.92;99307.53;5061347;28;20044;-94
2021/12/12 14:53:00;;;;;;;17.23;9.13;;;;;;;7.30;55.29;99328.69;5064378;28;20094;-95
2021/12/12 14:55:29;;;;;;;19.67;10.70;;;;;;;7.17;55.20;99319.91;5064084;28;20131;-95
2021/12/12 14:58:02;;;;;;;;;;;;;;;7.45;53.99;99350.66;5063401;28;20077;-95
2021/12/12 15:00:36;;;;;;;11.13;6.53;;;;;;;7.23;56.64;99342.81;5063727;28;20310;-94
2021/12/12 15:03:07;;;;;;;11.18;7.05;;;;;;;6.94;58.08;99327.06;5065062;28;20072;-94